createdAt,value
2018-05-29T00:01:35.936Z,25.25
2018-05-29T00:03:37.460Z,25.17
2018-05-29T00:05:39.031Z,25.15
2018-05-29T00:07:40.536Z,25.02
2018-05-29T00:09:42.053Z,25.12
2018-05-29T00:11:43.529Z,25.13
2018-05-29T00:13:45.131Z,25.12
2018-05-29T00:15:46.809Z,25.15
2018-05-29T00:17:48.307Z,25.13
2018-05-29T00:19:49.830Z,25.12
2018-05-29T00:21:51.354Z,25.12
2018-05-29T00:23:52.855Z,25.07
2018-05-29T00:25:54.369Z,25.01
2018-05-29T00:27:55.963Z,25.00
2018-05-29T00:29:57.461Z,24.97
2018-05-29T00:31:58.926Z,24.91
2018-05-29T00:34:00.418Z,24.91
2018-05-29T00:36:01.886Z,24.83
2018-05-29T00:38:03.355Z,24.77
2018-05-29T00:40:04.802Z,24.79
2018-05-29T00:42:06.240Z,24.80
2018-05-29T00:44:07.676Z,24.79
2018-05-29T00:46:09.106Z,24.79
2018-05-29T00:48:10.549Z,24.75
2018-05-29T00:50:11.968Z,24.69
2018-05-29T00:52:13.539Z,24.77
2018-05-29T00:54:15.010Z,24.61
2018-05-29T00:56:16.542Z,24.61
2018-05-29T00:58:18.215Z,24.61
2018-05-29T01:00:19.940Z,24.67
2018-05-29T01:02:22.146Z,24.59
2018-05-29T01:04:23.837Z,24.60
2018-05-29T01:06:25.501Z,24.63
2018-05-29T01:08:27.105Z,24.45
2018-05-29T01:10:29.301Z,24.50
2018-05-29T01:12:30.982Z,24.47
2018-05-29T01:14:32.498Z,24.39
2018-05-29T01:16:34.224Z,24.31
2018-05-29T01:18:35.693Z,24.34
2018-05-29T01:20:37.155Z,24.27
2018-05-29T01:22:38.648Z,24.34
2018-05-29T01:24:40.191Z,24.31
2018-05-29T01:26:41.676Z,24.24
2018-05-29T01:28:43.192Z,24.14
2018-05-29T01:30:44.743Z,24.16
2018-05-29T01:32:46.242Z,24.17
2018-05-29T01:34:47.852Z,24.14
2018-05-29T01:36:49.337Z,24.05
2018-05-29T01:38:50.823Z,24.00
2018-05-29T01:40:52.322Z,24.01
2018-05-29T01:42:53.781Z,23.98
2018-05-29T01:44:55.315Z,24.00
2018-05-29T01:46:56.782Z,24.02
2018-05-29T01:48:58.338Z,23.86
2018-05-29T01:50:59.811Z,23.92
2018-05-29T01:53:01.363Z,23.90
2018-05-29T01:55:02.904Z,23.94
2018-05-29T01:57:04.458Z,23.82
2018-05-29T01:59:05.965Z,23.80
2018-05-29T02:01:07.468Z,23.83
2018-05-29T02:03:09.730Z,23.85
2018-05-29T02:05:11.561Z,23.80
2018-05-29T02:07:13.846Z,23.71
2018-05-29T02:09:15.575Z,23.75
2018-05-29T02:11:17.347Z,23.72
2018-05-29T02:13:18.859Z,23.65
2018-05-29T02:15:20.336Z,23.71
2018-05-29T02:17:21.837Z,23.64
2018-05-29T02:19:23.392Z,23.67
2018-05-29T02:21:25.082Z,23.55
2018-05-29T02:23:26.623Z,23.55
2018-05-29T02:25:28.091Z,23.52
2018-05-29T02:27:29.635Z,23.50
2018-05-29T02:29:31.490Z,23.58
2018-05-29T02:31:33.866Z,23.61
2018-05-29T02:33:35.532Z,23.52
2018-05-29T02:35:37.339Z,23.52
2018-05-29T02:37:38.769Z,23.49
2018-05-29T02:39:40.244Z,23.52
2018-05-29T02:41:41.821Z,23.43
2018-05-29T02:43:43.391Z,23.38
2018-05-29T02:45:44.901Z,23.35
2018-05-29T02:47:46.387Z,23.39
2018-05-29T02:49:47.825Z,23.34
2018-05-29T02:51:49.312Z,23.32
2018-05-29T02:53:50.777Z,23.35
2018-05-29T02:55:52.375Z,23.29
2018-05-29T02:57:53.859Z,23.23
2018-05-29T02:59:55.384Z,23.22
2018-05-29T03:01:56.990Z,23.24
2018-05-29T03:03:58.496Z,23.19
2018-05-29T03:05:59.958Z,23.23
2018-05-29T03:08:01.423Z,23.17
2018-05-29T03:10:02.906Z,23.09
2018-05-29T03:12:04.402Z,23.12
2018-05-29T03:14:05.911Z,23.11
2018-05-29T03:16:07.790Z,23.02
2018-05-29T03:18:09.536Z,23.07
2018-05-29T03:20:11.305Z,22.97
2018-05-29T03:22:12.908Z,23.05
2018-05-29T03:24:14.415Z,23.01
2018-05-29T03:26:16.058Z,23.07
2018-05-29T03:28:18.369Z,22.96
2018-05-29T03:30:20.674Z,22.94
2018-05-29T03:32:22.396Z,22.93
2018-05-29T03:34:23.891Z,22.97
2018-05-29T03:36:25.439Z,23.01
2018-05-29T03:38:27.181Z,23.02
2018-05-29T03:40:29.323Z,22.99
2018-05-29T03:42:30.989Z,22.93
2018-05-29T03:44:33.339Z,22.94
2018-05-29T03:46:35.667Z,22.97
2018-05-29T03:48:37.924Z,22.83
2018-05-29T03:50:40.244Z,22.90
2018-05-29T03:52:41.692Z,22.92
2018-05-29T03:54:43.192Z,22.82
2018-05-29T03:56:44.712Z,22.82
2018-05-29T03:58:46.232Z,22.86
2018-05-29T04:00:48.307Z,22.80
2018-05-29T04:02:49.936Z,22.83
2018-05-29T04:04:51.685Z,22.84
2018-05-29T04:06:53.149Z,22.84
2018-05-29T04:08:54.717Z,22.87
2018-05-29T04:10:56.243Z,22.90
2018-05-29T04:12:57.783Z,22.89
2018-05-29T04:14:59.558Z,22.90
2018-05-29T04:17:01.293Z,22.83
2018-05-29T04:19:02.947Z,22.92
2018-05-29T04:21:04.495Z,22.84
2018-05-29T04:23:05.976Z,22.87
2018-05-29T04:25:07.746Z,22.86
2018-05-29T04:27:09.440Z,22.87
2018-05-29T04:29:11.653Z,22.83
2018-05-29T04:31:13.183Z,22.82
2018-05-29T04:33:14.697Z,22.90
2018-05-29T04:35:16.194Z,22.86
2018-05-29T04:37:17.725Z,22.86
2018-05-29T04:39:19.297Z,22.90
2018-05-29T04:41:20.778Z,22.82
2018-05-29T04:43:22.273Z,22.90
2018-05-29T04:45:23.755Z,22.87
2018-05-29T04:47:25.264Z,22.82
2018-05-29T04:49:26.768Z,22.84
2018-05-29T04:51:28.293Z,22.99
2018-05-29T04:53:29.800Z,22.96
2018-05-29T04:55:31.350Z,22.93
2018-05-29T04:57:32.915Z,22.94
2018-05-29T04:59:34.385Z,23.01
2018-05-29T05:01:35.908Z,22.97
2018-05-29T05:03:37.383Z,23.05
2018-05-29T05:05:38.919Z,23.14
2018-05-29T05:07:40.442Z,23.20
2018-05-29T05:09:41.940Z,23.22
2018-05-29T05:11:43.678Z,23.20
2018-05-29T05:13:45.734Z,23.26
2018-05-29T05:16:28.266Z,23.38
2018-05-29T05:18:29.698Z,23.35
2018-05-29T05:20:31.154Z,23.40
2018-05-29T05:22:32.838Z,23.46
2018-05-29T05:24:34.895Z,23.49
2018-05-29T05:26:36.343Z,23.55
2018-05-29T05:28:37.924Z,23.62
2018-05-29T05:30:39.816Z,23.62
2018-05-29T05:32:41.626Z,23.62
2018-05-29T05:34:43.399Z,23.79
2018-05-29T05:36:45.147Z,23.86
2018-05-29T05:38:46.933Z,24.24
2018-05-29T05:40:48.900Z,24.50
2018-05-29T05:42:50.697Z,24.87
2018-05-29T05:44:52.534Z,25.22
2018-05-29T05:46:54.441Z,25.65
2018-05-29T05:48:56.230Z,25.90
2018-05-29T05:50:58.051Z,26.39
2018-05-29T05:52:59.694Z,26.95
2018-05-29T05:55:42.133Z,27.35
2018-05-29T05:57:43.709Z,27.50
2018-05-29T05:59:45.377Z,27.86
2018-05-29T06:01:47.448Z,28.41
2018-05-29T06:03:49.340Z,29.25
2018-05-29T06:05:51.215Z,30.18
2018-05-29T06:07:52.976Z,30.87
2018-05-29T06:09:54.806Z,31.58
2018-05-29T06:11:56.713Z,32.33
2018-05-29T06:13:58.420Z,32.93
2018-05-29T06:16:00.492Z,33.27
2018-05-29T06:18:02.332Z,33.53
2018-05-29T06:20:04.816Z,33.76
2018-05-29T06:22:06.599Z,33.61
2018-05-29T06:24:08.631Z,33.48
2018-05-29T06:26:10.480Z,33.13
2018-05-29T06:28:12.316Z,33.20
2018-05-29T06:30:13.827Z,33.92
2018-05-29T06:32:15.479Z,34.41
2018-05-29T06:34:17.244Z,35.13
2018-05-29T06:37:00.268Z,35.97
2018-05-29T06:39:01.797Z,36.41
2018-05-29T06:41:03.843Z,36.79
2018-05-29T06:43:08.477Z,37.31
2018-05-29T06:45:10.416Z,37.58
2018-05-29T06:47:12.584Z,37.93
2018-05-29T06:49:14.494Z,38.39
2018-05-29T06:51:16.661Z,38.63
2018-05-29T06:53:18.487Z,38.76
2018-05-29T06:55:20.276Z,38.75
2018-05-29T06:57:22.226Z,38.78
2018-05-29T06:59:24.110Z,38.86
2018-05-29T07:01:25.866Z,38.82
2018-05-29T07:03:28.043Z,39.02
2018-05-29T07:05:29.817Z,39.14
2018-05-29T07:07:31.722Z,39.43
2018-05-29T07:09:33.252Z,39.24
2018-05-29T07:11:34.690Z,39.22
2018-05-29T07:13:36.144Z,39.36
2018-05-29T07:15:37.595Z,39.15
2018-05-29T07:17:39.052Z,38.89
2018-05-29T07:19:40.550Z,38.57
2018-05-29T07:21:42.141Z,37.85
2018-05-29T07:23:43.641Z,37.02
2018-05-29T07:25:45.163Z,36.07
2018-05-29T07:27:46.713Z,35.23
2018-05-29T07:29:48.163Z,34.53
2018-05-29T07:31:49.607Z,33.79
2018-05-29T07:33:51.053Z,33.30
2018-05-29T07:35:52.504Z,32.71
2018-05-29T07:37:54.071Z,32.24
2018-05-29T07:39:55.893Z,31.72
2018-05-29T07:41:57.338Z,31.26
2018-05-29T07:43:58.785Z,30.91
2018-05-29T07:46:00.369Z,30.75
2018-05-29T07:48:01.967Z,30.37
2018-05-29T07:50:03.749Z,30.33
2018-05-29T07:52:05.540Z,30.27
2018-05-29T07:54:07.145Z,30.21
2018-05-29T07:56:08.666Z,30.11
2018-05-29T07:58:10.162Z,29.92
2018-05-29T08:00:11.690Z,29.82
2018-05-29T08:02:13.248Z,29.84
2018-05-29T08:04:14.959Z,29.84
2018-05-29T08:06:16.868Z,29.77
2018-05-29T08:08:18.587Z,29.70
2018-05-29T08:10:20.107Z,29.79
2018-05-29T08:12:21.632Z,29.84
2018-05-29T08:14:23.135Z,29.79
2018-05-29T08:16:25.023Z,29.71
2018-05-29T08:18:26.858Z,29.86
2018-05-29T08:20:28.696Z,29.92
2018-05-29T08:22:30.480Z,30.02
2018-05-29T08:24:32.235Z,30.02
2018-05-29T08:26:33.962Z,30.19
2018-05-29T08:28:35.695Z,30.30
2018-05-29T08:30:37.237Z,30.29
2018-05-29T08:32:38.756Z,30.34
2018-05-29T08:34:40.681Z,30.46
2018-05-29T08:36:42.982Z,30.69
2018-05-29T08:38:45.278Z,30.78
2018-05-29T08:40:47.000Z,30.90
2018-05-29T08:42:48.709Z,30.98
2018-05-29T08:44:50.218Z,31.08
2018-05-29T08:46:51.746Z,31.09
2018-05-29T08:48:53.233Z,31.26
2018-05-29T08:50:54.711Z,31.36
2018-05-29T08:52:56.220Z,31.45
2018-05-29T08:54:58.219Z,31.54
2018-05-29T08:56:59.953Z,31.60
2018-05-29T08:59:01.486Z,31.64
2018-05-29T09:01:02.994Z,31.76
2018-05-29T09:03:04.460Z,31.93
2018-05-29T09:05:05.939Z,31.80
2018-05-29T09:07:07.422Z,32.02
2018-05-29T09:09:08.860Z,32.10
2018-05-29T09:11:10.325Z,32.27
2018-05-29T09:13:11.761Z,32.40
2018-05-29T09:15:13.234Z,32.44
2018-05-29T09:17:14.682Z,32.66
2018-05-29T09:19:16.128Z,32.64
2018-05-29T09:21:17.580Z,32.69
2018-05-29T09:23:19.042Z,32.67
2018-05-29T09:25:20.493Z,32.88
2018-05-29T09:27:22.437Z,32.93
2018-05-29T09:29:23.973Z,32.95
2018-05-29T09:31:25.583Z,32.86
2018-05-29T09:33:27.041Z,32.88
2018-05-29T09:35:28.522Z,32.89
2018-05-29T09:37:29.946Z,32.99
2018-05-29T09:39:31.392Z,33.19
2018-05-29T09:41:32.855Z,33.17
2018-05-29T09:43:34.291Z,33.23
2018-05-29T09:45:35.744Z,33.37
2018-05-29T09:47:37.379Z,33.27
2018-05-29T09:49:38.881Z,33.34
2018-05-29T09:51:40.357Z,33.49
2018-05-29T09:53:41.895Z,33.53
2018-05-29T09:55:43.384Z,33.55
2018-05-29T09:57:44.902Z,33.51
2018-05-29T09:59:46.384Z,33.65
2018-05-29T10:01:47.835Z,33.82
2018-05-29T10:03:49.288Z,33.76
2018-05-29T10:05:50.745Z,33.94
2018-05-29T10:07:52.189Z,33.94
2018-05-29T10:09:53.638Z,33.78
2018-05-29T10:11:55.087Z,33.89
2018-05-29T10:13:56.539Z,33.97
2018-05-29T10:15:57.989Z,34.07
2018-05-29T10:17:59.713Z,34.17
2018-05-29T10:20:01.173Z,34.26
2018-05-29T10:22:02.732Z,34.26
2018-05-29T10:24:04.241Z,34.32
2018-05-29T10:26:05.736Z,34.54
2018-05-29T10:28:07.191Z,34.50
2018-05-29T10:30:08.733Z,34.54
2018-05-29T10:32:10.278Z,34.72
2018-05-29T10:34:11.775Z,34.73
2018-05-29T10:36:13.247Z,34.61
2018-05-29T10:38:55.741Z,34.58
2018-05-29T10:40:57.219Z,34.66
2018-05-29T10:42:58.668Z,34.74
2018-05-29T10:45:00.117Z,34.69
2018-05-29T10:47:01.576Z,34.94
2018-05-29T10:49:03.025Z,34.99
2018-05-29T10:51:04.498Z,35.02
2018-05-29T10:53:05.956Z,34.89
2018-05-29T10:55:07.402Z,34.98
2018-05-29T10:57:08.899Z,34.92
2018-05-29T10:59:10.409Z,34.84
2018-05-29T11:01:11.803Z,35.13
2018-05-29T11:03:13.253Z,35.06
2018-05-29T11:05:14.707Z,35.08
2018-05-29T11:07:16.156Z,35.14
2018-05-29T11:09:17.618Z,35.15
2018-05-29T11:11:19.069Z,35.07
2018-05-29T11:13:20.521Z,35.08
2018-05-29T11:15:21.971Z,35.07
2018-05-29T11:17:23.421Z,35.11
2018-05-29T11:19:24.912Z,35.01
2018-05-29T11:21:26.366Z,35.18
2018-05-29T11:23:27.815Z,35.25
2018-05-29T11:25:29.273Z,35.20
2018-05-29T11:27:30.735Z,35.28
2018-05-29T11:29:32.204Z,35.30
2018-05-29T11:31:33.664Z,35.14
2018-05-29T11:33:35.118Z,35.26
2018-05-29T11:35:36.573Z,35.17
2018-05-29T11:37:38.057Z,35.14
2018-05-29T11:39:39.628Z,35.28
2018-05-29T11:41:41.180Z,35.25
2018-05-29T11:43:42.602Z,35.26
2018-05-29T11:45:44.066Z,35.28
2018-05-29T11:47:45.526Z,35.35
2018-05-29T11:49:46.976Z,35.21
2018-05-29T11:51:48.429Z,35.23
2018-05-29T11:53:49.878Z,35.17
2018-05-29T11:55:51.332Z,35.30
2018-05-29T11:57:52.781Z,35.30
2018-05-29T11:59:54.236Z,35.30
2018-05-29T12:01:56.417Z,35.51
2018-05-29T12:03:57.913Z,35.45
2018-05-29T12:05:59.364Z,35.17
2018-05-29T12:08:00.873Z,34.89
2018-05-29T12:10:02.398Z,34.72
2018-05-29T12:12:03.854Z,34.56
2018-05-29T12:14:05.468Z,34.35
2018-05-29T12:16:06.920Z,34.26
2018-05-29T12:18:08.365Z,34.09
2018-05-29T12:20:09.817Z,34.00
2018-05-29T12:22:11.269Z,34.05
2018-05-29T12:24:12.717Z,33.92
2018-05-29T12:26:14.224Z,33.65
2018-05-29T12:28:15.676Z,33.46
2018-05-29T12:30:17.108Z,33.48
2018-05-29T12:32:18.554Z,33.43
2018-05-29T12:34:20.025Z,33.57
2018-05-29T12:36:21.475Z,33.57
2018-05-29T12:38:22.923Z,33.55
2018-05-29T12:40:24.397Z,33.64
2018-05-29T12:42:25.851Z,33.70
2018-05-29T12:44:27.308Z,33.80
2018-05-29T12:46:28.797Z,33.82
2018-05-29T12:48:30.224Z,33.90
2018-05-29T12:50:31.744Z,33.95
2018-05-29T12:52:33.247Z,34.04
2018-05-29T12:54:34.816Z,34.24
2018-05-29T12:56:36.308Z,34.53
2018-05-29T12:58:37.857Z,34.57
2018-05-29T13:00:39.405Z,34.48
2018-05-29T13:02:40.887Z,34.34
2018-05-29T13:04:42.403Z,34.19
2018-05-29T13:06:43.877Z,34.00
2018-05-29T13:08:45.375Z,33.82
2018-05-29T13:10:46.891Z,33.64
2018-05-29T13:12:48.437Z,33.61
2018-05-29T13:14:49.953Z,33.45
2018-05-29T13:16:51.413Z,33.43
2018-05-29T13:18:53.068Z,33.46
2018-05-29T13:20:54.771Z,33.55
2018-05-29T13:22:56.220Z,33.70
2018-05-29T13:24:57.736Z,33.80
2018-05-29T13:26:59.252Z,33.58
2018-05-29T13:29:00.737Z,33.57
2018-05-29T13:31:02.284Z,33.71
2018-05-29T13:33:03.861Z,33.78
2018-05-29T13:35:05.290Z,33.85
2018-05-29T13:37:06.748Z,33.76
2018-05-29T13:39:08.203Z,33.94
2018-05-29T13:41:09.644Z,34.11
2018-05-29T13:43:11.097Z,34.20
2018-05-29T13:45:12.554Z,34.08
2018-05-29T13:47:14.024Z,34.05
2018-05-29T13:49:15.486Z,33.85
2018-05-29T13:51:16.923Z,33.97
2018-05-29T13:53:18.386Z,34.02
2018-05-29T13:55:19.837Z,34.27
2018-05-29T13:57:21.286Z,34.41
2018-05-29T13:59:22.753Z,34.29
2018-05-29T14:01:24.208Z,34.22
2018-05-29T14:03:25.728Z,34.05
2018-05-29T14:05:27.148Z,33.92
2018-05-29T14:07:28.598Z,33.95
2018-05-29T14:09:30.045Z,33.86
2018-05-29T14:11:31.506Z,33.70
2018-05-29T14:13:33.027Z,33.49
2018-05-29T14:15:34.571Z,33.43
2018-05-29T14:17:36.104Z,33.46
2018-05-29T14:19:37.570Z,33.27
2018-05-29T14:21:39.073Z,33.20
2018-05-29T14:23:40.576Z,33.19
2018-05-29T14:25:42.107Z,33.15
2018-05-29T14:27:43.542Z,32.95
2018-05-29T14:29:45.002Z,32.88
2018-05-29T14:31:46.446Z,33.03
2018-05-29T14:33:47.909Z,32.98
2018-05-29T14:35:49.559Z,32.95
2018-05-29T14:37:51.161Z,32.95
2018-05-29T14:39:52.710Z,33.04
2018-05-29T14:41:54.209Z,32.99
2018-05-29T14:43:55.718Z,33.01
2018-05-29T14:45:57.141Z,33.01
2018-05-29T14:47:58.632Z,33.01
2018-05-29T14:50:00.371Z,33.01
2018-05-29T14:52:02.004Z,32.85
2018-05-29T14:54:03.687Z,32.84
2018-05-29T14:56:05.437Z,32.80
2018-05-29T14:58:07.005Z,32.69
2018-05-29T15:00:08.508Z,32.64
2018-05-29T15:02:50.965Z,32.48
2018-05-29T15:04:52.412Z,32.48
2018-05-29T15:06:53.861Z,32.43
2018-05-29T15:08:55.493Z,32.47
2018-05-29T15:10:56.938Z,32.44
2018-05-29T15:12:58.383Z,32.40
2018-05-29T15:14:59.836Z,32.37
2018-05-29T15:17:01.429Z,32.36
2018-05-29T15:19:03.036Z,32.35
2018-05-29T15:21:04.642Z,32.27
2018-05-29T15:23:06.411Z,32.22
2018-05-29T15:25:08.020Z,32.20
2018-05-29T15:27:09.599Z,32.02
2018-05-29T15:29:11.158Z,32.06
2018-05-29T15:31:12.652Z,32.05
2018-05-29T15:33:14.228Z,31.99
2018-05-29T15:35:15.724Z,31.84
2018-05-29T15:37:17.202Z,31.70
2018-05-29T15:39:18.689Z,31.58
2018-05-29T15:41:20.273Z,31.54
2018-05-29T15:43:21.930Z,31.50
2018-05-29T15:45:23.528Z,31.46
2018-05-29T15:47:25.104Z,31.26
2018-05-29T15:49:26.959Z,31.26
2018-05-29T15:51:28.461Z,31.21
2018-05-29T15:53:30.189Z,31.13
2018-05-29T15:55:31.880Z,31.01
2018-05-29T15:57:33.377Z,30.98
2018-05-29T15:59:34.945Z,30.87
2018-05-29T16:01:36.433Z,30.62
2018-05-29T16:03:37.973Z,30.54
2018-05-29T16:05:39.715Z,30.52
2018-05-29T16:07:41.220Z,30.47
2018-05-29T16:09:42.740Z,30.46
2018-05-29T16:11:44.609Z,30.43
2018-05-29T16:13:46.143Z,30.52
2018-05-29T16:15:47.625Z,30.47
2018-05-29T16:17:49.511Z,30.46
2018-05-29T16:19:51.308Z,30.46
2018-05-29T16:21:53.263Z,30.31
2018-05-29T16:23:54.976Z,30.34
2018-05-29T16:25:56.833Z,30.31
2018-05-29T16:28:39.411Z,30.26
2018-05-29T16:30:40.849Z,30.24
2018-05-29T16:32:42.335Z,30.18
2018-05-29T16:34:43.937Z,30.12
2018-05-29T16:36:45.315Z,29.93
2018-05-29T16:39:27.764Z,29.79
2018-05-29T16:41:30.284Z,29.79
2018-05-29T16:43:31.717Z,29.81
2018-05-29T16:45:33.137Z,29.87
2018-05-29T16:47:34.655Z,29.87
2018-05-29T16:49:36.079Z,29.79
2018-05-29T16:51:37.524Z,29.75
2018-05-29T16:53:39.017Z,29.84
2018-05-29T16:55:40.470Z,29.78
2018-05-29T16:57:42.025Z,29.68
2018-05-29T16:59:43.461Z,29.65
2018-05-29T17:01:45.030Z,29.52
2018-05-29T17:03:46.544Z,29.34
2018-05-29T17:05:48.339Z,29.25
2018-05-29T17:07:49.926Z,29.20
2018-05-29T17:09:51.668Z,29.08
2018-05-29T17:11:53.451Z,28.95
2018-05-29T17:13:55.209Z,28.88
2018-05-29T17:15:56.748Z,28.81
2018-05-29T17:17:58.261Z,28.77
2018-05-29T17:20:00.154Z,28.69
2018-05-29T17:22:01.646Z,28.59
2018-05-29T17:24:03.168Z,28.56
2018-05-29T17:26:04.686Z,28.51
2018-05-29T17:28:06.210Z,28.48
2018-05-29T17:30:07.940Z,28.35
2018-05-29T17:32:09.486Z,28.33
2018-05-29T17:34:11.320Z,28.04
2018-05-29T17:36:12.879Z,27.89
2018-05-29T17:38:14.464Z,27.58
2018-05-29T17:40:15.915Z,27.26
2018-05-29T17:42:17.429Z,27.05
2018-05-29T17:44:18.960Z,26.62
2018-05-29T17:46:20.493Z,26.40
2018-05-29T17:48:22.036Z,26.20
2018-05-29T17:50:23.548Z,25.93
2018-05-29T17:52:25.116Z,25.89
2018-05-29T17:54:26.599Z,25.80
2018-05-29T17:56:28.276Z,25.89
2018-05-29T17:58:29.845Z,25.97
2018-05-29T18:00:31.376Z,26.01
2018-05-29T18:02:33.136Z,26.36
2018-05-29T18:04:34.831Z,26.57
2018-05-29T18:06:36.351Z,26.64
2018-05-29T18:08:37.863Z,26.77
2018-05-29T18:10:39.380Z,26.89
2018-05-29T18:12:40.890Z,26.92
2018-05-29T18:14:42.488Z,26.94
2018-05-29T18:16:43.991Z,26.87
2018-05-29T18:18:45.511Z,26.91
2018-05-29T18:20:47.086Z,26.96
2018-05-29T18:22:48.918Z,27.01
2018-05-29T18:24:50.601Z,26.98
2018-05-29T18:26:52.188Z,26.99
2018-05-29T18:28:53.976Z,26.95
2018-05-29T18:30:55.821Z,26.98
2018-05-29T18:32:57.848Z,26.99
2018-05-29T18:34:59.761Z,27.01
2018-05-29T18:37:01.390Z,26.98
2018-05-29T18:39:02.928Z,26.98
2018-05-29T18:41:04.468Z,26.99
2018-05-29T18:43:06.057Z,26.96
2018-05-29T18:45:07.926Z,26.94
2018-05-29T18:47:09.783Z,26.96
2018-05-29T18:49:11.627Z,26.94
2018-05-29T18:51:13.066Z,26.96
2018-05-29T18:53:14.669Z,26.96
2018-05-29T18:55:16.223Z,26.81
2018-05-29T18:57:58.653Z,26.64
2018-05-29T19:00:03.397Z,26.40
2018-05-29T19:02:04.711Z,26.32
2018-05-29T19:04:07.635Z,26.27
2018-05-29T19:06:09.791Z,25.99
2018-05-29T19:08:51.578Z,25.90
2018-05-29T19:10:53.221Z,25.89
2018-05-29T19:12:54.683Z,25.77
2018-05-29T19:14:56.290Z,25.74
2018-05-29T19:17:40.168Z,25.64
2018-05-29T19:19:41.798Z,25.52
2018-05-29T19:21:43.274Z,25.39
2018-05-29T19:23:44.792Z,25.31
2018-05-29T19:25:46.315Z,25.20
2018-05-29T19:28:29.028Z,25.19
2018-05-29T19:30:31.713Z,25.10
2018-05-29T19:32:33.214Z,25.09
2018-05-29T19:34:34.683Z,25.02
2018-05-29T19:36:36.516Z,24.90
2018-05-29T19:39:17.666Z,24.94
2018-05-29T19:41:19.221Z,24.68
2018-05-29T19:43:20.713Z,24.61
2018-05-29T19:45:22.133Z,24.68
2018-05-29T19:47:23.602Z,24.76
2018-05-29T19:49:25.070Z,24.80
2018-05-29T19:51:26.518Z,25.00
2018-05-29T19:53:28.082Z,25.02
2018-05-29T19:55:29.860Z,25.00
2018-05-29T19:57:31.368Z,24.97
2018-05-29T19:59:32.846Z,24.94
2018-05-29T20:01:34.594Z,24.83
2018-05-29T20:03:37.031Z,24.77
2018-05-29T20:05:38.636Z,24.75
2018-05-29T20:07:40.267Z,24.85
2018-05-29T20:09:41.739Z,24.90
2018-05-29T20:11:43.437Z,24.94
2018-05-29T20:13:45.145Z,24.85
2018-05-29T20:15:46.565Z,24.85
2018-05-29T20:17:48.014Z,24.79
2018-05-29T20:19:49.444Z,24.76
2018-05-29T20:21:50.873Z,24.77
2018-05-29T20:23:52.312Z,24.79
2018-05-29T20:25:53.746Z,24.91
2018-05-29T20:27:55.220Z,24.85
2018-05-29T20:29:56.614Z,24.75
2018-05-29T20:31:58.037Z,24.64
2018-05-29T20:33:59.476Z,24.67
2018-05-29T20:36:00.945Z,24.68
2018-05-29T20:38:02.565Z,24.53
2018-05-29T20:40:04.068Z,24.53
2018-05-29T20:42:05.518Z,24.50
2018-05-29T20:44:07.025Z,24.52
2018-05-29T20:46:08.574Z,24.61
2018-05-29T20:48:10.080Z,24.67
2018-05-29T20:50:11.573Z,24.75
2018-05-29T20:52:13.081Z,24.69
2018-05-29T20:54:14.515Z,24.76
2018-05-29T20:56:15.952Z,24.80
2018-05-29T20:58:17.379Z,24.90
2018-05-29T21:00:18.811Z,24.94
2018-05-29T21:02:20.242Z,24.92
2018-05-29T21:04:21.676Z,24.88
2018-05-29T21:06:23.425Z,24.95
2018-05-29T21:08:24.935Z,24.87
2018-05-29T21:10:26.517Z,24.91
2018-05-29T21:12:28.036Z,24.94
2018-05-29T21:14:29.508Z,24.90
2018-05-29T21:16:31.066Z,24.91
2018-05-29T21:19:13.496Z,24.97
2018-05-29T21:21:14.923Z,24.91
2018-05-29T21:23:16.395Z,24.92
2018-05-29T21:25:17.829Z,24.98
2018-05-29T21:28:00.257Z,25.01
2018-05-29T21:30:01.686Z,24.91
2018-05-29T21:32:03.119Z,24.94
2018-05-29T21:34:04.559Z,24.94
2018-05-29T21:36:05.989Z,24.87
2018-05-29T21:38:07.448Z,24.85
2018-05-29T21:40:08.879Z,24.90
2018-05-29T21:42:10.322Z,24.80
2018-05-29T21:44:11.948Z,24.82
2018-05-29T21:46:13.548Z,24.85
2018-05-29T21:48:15.054Z,24.77
2018-05-29T21:50:16.493Z,24.85
2018-05-29T21:58:41.302Z,24.64
2018-05-29T22:00:42.738Z,24.69
2018-05-29T22:02:44.173Z,24.76
2018-05-29T22:04:45.601Z,24.69
2018-05-29T22:06:47.040Z,24.67
2018-05-29T22:08:48.507Z,24.63
2018-05-29T22:10:49.929Z,24.63
2018-05-29T22:12:51.399Z,24.67
2018-05-29T22:14:52.815Z,24.50
2018-05-29T22:16:54.347Z,24.60
2018-05-29T22:18:55.930Z,24.60
2018-05-29T22:20:57.417Z,24.56
2018-05-29T22:22:58.884Z,24.59
2018-05-29T22:25:00.803Z,24.57
2018-05-29T22:27:02.207Z,24.52
2018-05-29T22:29:03.668Z,24.56
2018-05-29T22:31:05.175Z,24.47
2018-05-29T22:33:06.729Z,24.47
2018-05-29T22:35:08.225Z,24.44
2018-05-29T22:37:09.700Z,24.42
2018-05-29T22:39:11.213Z,24.38
2018-05-29T22:41:12.824Z,24.44
2018-05-29T22:43:14.314Z,24.42
2018-05-29T22:45:15.885Z,24.41
2018-05-29T22:47:17.410Z,24.39
2018-05-29T22:49:19.133Z,24.44
2018-05-29T22:51:20.621Z,24.37
2018-05-29T22:53:22.101Z,24.38
2018-05-29T22:55:23.672Z,24.35
2018-05-29T22:57:25.239Z,24.37
2018-05-29T22:59:26.774Z,24.34
2018-05-29T23:01:28.259Z,24.35
2018-05-29T23:03:30.098Z,24.27
2018-05-29T23:05:31.704Z,24.37
2018-05-29T23:07:33.170Z,24.29
2018-05-29T23:10:15.601Z,24.27
2018-05-29T23:12:17.036Z,24.23
2018-05-29T23:14:18.461Z,24.20
2018-05-29T23:16:19.905Z,24.14
2018-05-29T23:18:21.356Z,24.20
2018-05-29T23:20:22.763Z,24.14
2018-05-29T23:22:24.384Z,24.17
2018-05-29T23:24:25.855Z,24.17
2018-05-29T23:26:27.276Z,24.14
2018-05-29T23:28:28.713Z,24.07
2018-05-29T23:30:30.147Z,24.12
2018-05-29T23:32:31.571Z,24.08
2018-05-29T23:34:33.029Z,24.07
2018-05-29T23:36:34.501Z,24.07
2018-05-29T23:38:36.050Z,24.19
2018-05-29T23:40:37.515Z,24.01
2018-05-29T23:42:39.005Z,24.04
2018-05-29T23:44:40.468Z,23.97
2018-05-29T23:46:41.928Z,23.95
2018-05-29T23:48:43.453Z,23.95
2018-05-29T23:50:44.897Z,24.00
2018-05-29T23:52:46.340Z,23.95
2018-05-29T23:54:47.899Z,23.89
2018-05-29T23:56:49.363Z,23.87
2018-05-29T23:59:31.816Z,23.95
